createdAt,value
2023-11-29T00:01:15.544Z,4.97
2023-11-29T00:04:17.910Z,4.78
2023-11-29T00:07:20.269Z,4.95
2023-11-29T00:10:23.646Z,4.93
2023-11-29T00:13:26.074Z,4.97
2023-11-29T00:16:28.413Z,4.84
2023-11-29T00:19:31.075Z,4.92
2023-11-29T00:22:33.429Z,4.81
2023-11-29T00:25:35.736Z,4.76
2023-11-29T00:28:38.103Z,4.94
2023-11-29T00:31:40.539Z,4.83
2023-11-29T00:34:43.331Z,4.78
2023-11-29T00:37:45.710Z,4.73
2023-11-29T00:40:48.088Z,4.77
2023-11-29T00:43:50.486Z,4.68
2023-11-29T00:46:52.907Z,4.62
2023-11-29T00:49:55.340Z,4.56
2023-11-29T00:52:57.746Z,4.54
2023-11-29T00:56:00.148Z,4.66
2023-11-29T00:59:02.533Z,4.55
2023-11-29T01:02:05.406Z,4.66
2023-11-29T01:05:08.303Z,4.64
2023-11-29T01:08:11.419Z,4.48
2023-11-29T01:11:14.417Z,4.38
2023-11-29T01:14:16.805Z,4.45
2023-11-29T01:17:19.209Z,4.38
2023-11-29T01:20:21.776Z,4.41
2023-11-29T01:23:24.142Z,4.39
2023-11-29T01:26:26.620Z,4.43
2023-11-29T01:29:29.025Z,4.48
2023-11-29T01:32:31.546Z,4.59
2023-11-29T01:35:33.989Z,4.52
2023-11-29T01:38:36.562Z,4.45
2023-11-29T01:41:38.971Z,4.45
2023-11-29T01:44:41.321Z,4.44
2023-11-29T01:47:44.296Z,4.50
2023-11-29T01:50:46.845Z,4.49
2023-11-29T01:53:52.823Z,4.38
2023-11-29T01:56:55.446Z,4.42
2023-11-29T01:59:57.892Z,4.40
2023-11-29T02:03:00.374Z,4.49
2023-11-29T02:06:02.935Z,4.39
2023-11-29T02:09:05.313Z,4.26
2023-11-29T02:12:10.797Z,4.21
2023-11-29T02:15:13.158Z,4.18
2023-11-29T02:18:15.587Z,4.25
2023-11-29T02:21:20.193Z,4.15
2023-11-29T02:24:25.558Z,4.25
2023-11-29T02:27:30.186Z,4.11
2023-11-29T02:30:32.594Z,4.24
2023-11-29T02:33:35.462Z,4.20
2023-11-29T02:36:37.873Z,4.08
2023-11-29T02:39:40.514Z,4.06
2023-11-29T02:42:42.868Z,4.02
2023-11-29T02:45:45.448Z,4.06
2023-11-29T02:48:47.932Z,4.16
2023-11-29T02:51:50.957Z,4.06
2023-11-29T02:54:53.334Z,4.07
2023-11-29T02:57:58.270Z,3.92
2023-11-29T03:01:00.890Z,3.79
2023-11-29T03:04:03.401Z,3.72
2023-11-29T03:07:05.809Z,3.73
2023-11-29T03:10:08.212Z,3.83
2023-11-29T03:13:10.837Z,3.85
2023-11-29T03:16:13.334Z,3.85
2023-11-29T03:19:15.711Z,3.85
2023-11-29T03:22:18.070Z,3.79
2023-11-29T03:25:20.463Z,3.69
2023-11-29T03:28:22.841Z,3.55
2023-11-29T03:31:25.189Z,3.56
2023-11-29T03:34:27.613Z,3.54
2023-11-29T03:37:29.990Z,3.53
2023-11-29T03:40:32.349Z,3.57
2023-11-29T03:43:34.711Z,3.53
2023-11-29T03:46:37.108Z,3.61
2023-11-29T03:49:39.561Z,3.62
2023-11-29T03:52:43.719Z,3.64
2023-11-29T03:55:46.590Z,3.56
2023-11-29T03:58:48.954Z,3.44
2023-11-29T04:01:51.436Z,3.61
2023-11-29T04:04:53.897Z,3.41
2023-11-29T04:07:56.250Z,3.36
2023-11-29T04:10:58.627Z,3.18
2023-11-29T04:14:00.982Z,3.08
2023-11-29T04:17:04.245Z,3.06
2023-11-29T04:20:07.236Z,2.99
2023-11-29T04:23:09.607Z,2.94
2023-11-29T04:26:24.549Z,2.84
2023-11-29T04:29:27.035Z,2.87
2023-11-29T04:32:29.946Z,2.81
2023-11-29T04:35:33.158Z,2.73
2023-11-29T04:38:35.665Z,2.71
2023-11-29T04:41:38.047Z,2.72
2023-11-29T04:44:40.407Z,2.73
2023-11-29T04:47:42.900Z,2.68
2023-11-29T04:50:45.264Z,2.67
2023-11-29T04:53:47.726Z,2.64
2023-11-29T04:56:50.200Z,2.64
2023-11-29T04:59:53.480Z,2.62
2023-11-29T05:02:56.970Z,2.59
2023-11-29T05:05:59.411Z,2.62
2023-11-29T05:09:01.810Z,6.12
2023-11-29T05:12:04.747Z,8.54
2023-11-29T05:15:08.043Z,9.87
2023-11-29T05:18:10.569Z,10.66
2023-11-29T05:21:12.984Z,11.40
2023-11-29T05:24:15.297Z,11.31
2023-11-29T05:27:17.725Z,11.50
2023-11-29T05:30:20.120Z,11.56
2023-11-29T05:33:23.042Z,8.08
2023-11-29T05:36:26.334Z,5.85
2023-11-29T05:39:28.699Z,4.41
2023-11-29T05:42:31.054Z,3.73
2023-11-29T05:45:33.441Z,3.29
2023-11-29T05:48:35.806Z,3.04
2023-11-29T05:51:38.379Z,2.88
2023-11-29T05:54:40.742Z,2.78
2023-11-29T05:57:46.313Z,2.61
2023-11-29T06:00:48.849Z,2.68
2023-11-29T06:03:51.268Z,2.62
2023-11-29T06:06:53.696Z,2.62
2023-11-29T06:09:56.103Z,2.60
2023-11-29T06:12:58.434Z,2.59
2023-11-29T06:16:01.123Z,2.58
2023-11-29T06:19:03.527Z,2.63
2023-11-29T06:22:05.966Z,2.75
2023-11-29T06:25:09.374Z,2.68
2023-11-29T06:28:11.918Z,2.70
2023-11-29T06:31:14.321Z,2.84
2023-11-29T06:34:16.890Z,2.73
2023-11-29T06:37:19.352Z,2.71
2023-11-29T06:40:21.779Z,2.66
2023-11-29T06:43:24.488Z,2.64
2023-11-29T06:46:27.069Z,2.70
2023-11-29T06:49:29.510Z,2.70
2023-11-29T06:52:32.578Z,2.71
2023-11-29T06:55:34.946Z,2.69
2023-11-29T06:58:39.194Z,2.61
2023-11-29T07:01:41.681Z,2.69
2023-11-29T07:04:44.890Z,2.63
2023-11-29T07:07:48.626Z,2.67
2023-11-29T07:10:51.594Z,2.69
2023-11-29T07:13:53.976Z,2.68
2023-11-29T07:16:56.350Z,2.70
2023-11-29T07:20:15.809Z,2.70
2023-11-29T07:23:33.632Z,2.82
2023-11-29T07:26:56.516Z,2.85
2023-11-29T07:29:58.974Z,2.85
2023-11-29T07:33:01.610Z,2.83
2023-11-29T07:36:13.459Z,2.96
2023-11-29T07:39:15.777Z,3.13
2023-11-29T07:42:18.198Z,3.12
2023-11-29T07:45:22.868Z,3.10
2023-11-29T07:48:26.225Z,3.28
2023-11-29T07:51:28.678Z,3.29
2023-11-29T07:54:31.641Z,3.28
2023-11-29T07:57:34.967Z,3.32
2023-11-29T08:00:37.298Z,3.39
2023-11-29T08:03:39.709Z,3.36
2023-11-29T08:06:42.564Z,3.45
2023-11-29T08:09:45.717Z,3.49
2023-11-29T08:12:48.134Z,3.54
2023-11-29T08:15:50.547Z,3.69
2023-11-29T08:18:53.867Z,3.68
2023-11-29T08:21:56.329Z,3.66
2023-11-29T08:24:58.724Z,3.68
2023-11-29T08:28:01.134Z,3.76
2023-11-29T08:31:03.678Z,3.79
2023-11-29T08:34:06.079Z,4.10
2023-11-29T08:37:08.405Z,4.16
2023-11-29T08:40:11.189Z,4.28
2023-11-29T08:43:22.184Z,4.43
2023-11-29T08:46:27.043Z,4.55
2023-11-29T08:49:29.461Z,4.56
2023-11-29T08:52:32.622Z,4.54
2023-11-29T08:55:37.132Z,4.59
2023-11-29T08:58:39.501Z,4.65
2023-11-29T09:01:42.053Z,4.71
2023-11-29T09:04:44.428Z,4.88
2023-11-29T09:07:47.064Z,5.04
2023-11-29T09:11:12.433Z,5.01
2023-11-29T09:14:26.446Z,5.17
2023-11-29T09:17:43.707Z,5.32
2023-11-29T09:20:46.734Z,5.37
2023-11-29T09:23:49.243Z,5.49
2023-11-29T09:26:51.674Z,5.55
2023-11-29T09:29:54.109Z,5.71
2023-11-29T09:32:57.329Z,5.73
2023-11-29T09:36:00.191Z,5.94
2023-11-29T09:39:13.204Z,5.96
2023-11-29T09:42:15.630Z,6.12
2023-11-29T09:45:22.561Z,6.25
2023-11-29T09:48:25.172Z,6.32
2023-11-29T09:51:28.275Z,6.35
2023-11-29T09:54:32.457Z,6.55
2023-11-29T09:57:35.106Z,6.64
2023-11-29T10:00:37.556Z,6.68
2023-11-29T10:03:40.055Z,6.89
2023-11-29T10:06:42.667Z,6.81
2023-11-29T10:09:45.079Z,6.95
2023-11-29T10:12:47.428Z,7.07
2023-11-29T10:15:54.389Z,7.21
2023-11-29T10:18:57.408Z,7.36
2023-11-29T10:22:02.868Z,7.27
2023-11-29T10:25:20.222Z,7.52
2023-11-29T10:28:22.593Z,7.70
2023-11-29T10:31:25.082Z,7.91
2023-11-29T10:34:27.564Z,7.84
2023-11-29T10:37:30.005Z,7.96
2023-11-29T10:40:32.361Z,8.01
2023-11-29T10:43:35.746Z,8.14
2023-11-29T10:46:38.259Z,8.21
2023-11-29T10:49:49.645Z,8.36
2023-11-29T10:52:52.076Z,8.44
2023-11-29T10:55:54.437Z,8.50
2023-11-29T10:59:25.425Z,8.62
2023-11-29T11:02:31.375Z,8.92
2023-11-29T11:05:34.306Z,9.08
2023-11-29T11:08:36.960Z,9.32
2023-11-29T11:11:46.704Z,9.39
2023-11-29T11:14:52.316Z,9.57
2023-11-29T11:18:03.811Z,9.86
2023-11-29T11:21:08.491Z,10.00
2023-11-29T11:24:12.186Z,9.92
2023-11-29T11:27:14.672Z,10.08
2023-11-29T11:30:19.482Z,10.36
2023-11-29T11:33:21.953Z,10.42
2023-11-29T11:36:25.080Z,10.44
2023-11-29T11:39:28.822Z,10.69
2023-11-29T11:42:31.458Z,10.69
2023-11-29T11:45:34.879Z,10.93
2023-11-29T11:48:40.516Z,11.00
2023-11-29T11:51:43.004Z,10.94
2023-11-29T11:54:46.296Z,11.24
2023-11-29T11:57:48.730Z,11.41
2023-11-29T12:00:51.116Z,11.43
2023-11-29T12:03:53.550Z,11.64
2023-11-29T12:06:55.946Z,11.58
2023-11-29T12:09:58.410Z,11.45
2023-11-29T12:13:02.252Z,11.25
2023-11-29T12:16:18.277Z,10.97
2023-11-29T12:19:23.443Z,11.12
2023-11-29T12:22:26.425Z,10.92
2023-11-29T12:25:29.492Z,11.11
2023-11-29T12:28:33.939Z,11.05
2023-11-29T12:31:37.776Z,10.92
2023-11-29T12:34:42.297Z,11.17
2023-11-29T12:37:48.328Z,11.34
2023-11-29T12:40:50.971Z,11.50
2023-11-29T12:43:53.752Z,11.65
2023-11-29T12:46:56.114Z,11.72
2023-11-29T12:49:58.924Z,11.87
2023-11-29T12:53:01.353Z,11.91
2023-11-29T12:56:03.913Z,11.67
2023-11-29T12:59:06.799Z,11.64
2023-11-29T13:02:09.379Z,11.69
2023-11-29T13:05:12.328Z,11.67
2023-11-29T13:08:14.706Z,11.41
2023-11-29T13:11:17.140Z,11.26
2023-11-29T13:14:20.837Z,11.08
2023-11-29T13:17:24.078Z,10.88
2023-11-29T13:20:26.569Z,10.59
2023-11-29T13:23:28.971Z,10.08
2023-11-29T13:26:31.488Z,9.82
2023-11-29T13:29:35.219Z,9.60
2023-11-29T13:32:37.910Z,9.36
2023-11-29T13:35:40.740Z,9.09
2023-11-29T13:38:43.208Z,8.93
2023-11-29T13:41:46.254Z,8.64
2023-11-29T13:44:49.363Z,8.55
2023-11-29T13:47:51.932Z,8.52
2023-11-29T13:50:56.754Z,8.28
2023-11-29T13:53:59.227Z,8.13
2023-11-29T13:57:02.921Z,7.95
2023-11-29T14:00:06.348Z,7.79
2023-11-29T14:03:09.963Z,7.65
2023-11-29T14:06:13.164Z,7.63
2023-11-29T14:09:15.677Z,7.57
2023-11-29T14:12:19.075Z,7.44
2023-11-29T14:15:21.564Z,7.42
2023-11-29T14:18:24.241Z,7.34
2023-11-29T14:21:26.742Z,7.21
2023-11-29T14:24:29.083Z,7.13
2023-11-29T14:27:44.600Z,7.01
2023-11-29T14:30:54.102Z,7.00
2023-11-29T14:33:56.754Z,6.86
2023-11-29T14:36:59.178Z,6.76
2023-11-29T14:40:01.557Z,6.64
2023-11-29T14:43:03.912Z,6.57
2023-11-29T14:46:06.389Z,6.40
2023-11-29T14:49:13.833Z,6.17
2023-11-29T14:52:19.260Z,5.89
2023-11-29T14:55:21.753Z,5.73
2023-11-29T14:58:24.446Z,5.70
2023-11-29T15:01:26.866Z,5.61
2023-11-29T15:04:29.368Z,5.55
2023-11-29T15:07:31.741Z,5.46
2023-11-29T15:10:34.112Z,5.34
2023-11-29T15:13:41.563Z,5.21
2023-11-29T15:16:44.554Z,5.14
2023-11-29T15:19:47.030Z,5.08
2023-11-29T15:22:49.390Z,4.99
2023-11-29T15:25:51.802Z,4.84
2023-11-29T15:28:54.170Z,4.73
2023-11-29T15:31:56.881Z,4.64
2023-11-29T15:34:59.252Z,4.44
2023-11-29T15:38:01.775Z,4.35
2023-11-29T15:41:04.236Z,4.37
2023-11-29T15:44:07.100Z,4.37
2023-11-29T15:47:09.669Z,4.32
2023-11-29T15:50:12.660Z,4.26
2023-11-29T15:53:15.157Z,4.19
2023-11-29T15:56:17.541Z,4.03
2023-11-29T15:59:19.942Z,3.95
2023-11-29T16:02:22.427Z,3.85
2023-11-29T16:05:24.834Z,3.84
2023-11-29T16:08:27.513Z,3.86
2023-11-29T16:11:29.922Z,3.85
2023-11-29T16:14:32.298Z,3.71
2023-11-29T16:17:34.868Z,3.59
2023-11-29T16:20:37.983Z,3.53
2023-11-29T16:23:40.689Z,3.50
2023-11-29T16:26:43.552Z,3.46
2023-11-29T16:29:48.419Z,3.42
2023-11-29T16:32:51.060Z,3.36
2023-11-29T16:35:53.491Z,3.27
2023-11-29T16:38:56.009Z,3.21
2023-11-29T16:41:58.694Z,3.10
2023-11-29T16:45:01.141Z,2.88
2023-11-29T16:48:05.634Z,2.94
2023-11-29T16:51:09.992Z,2.89
2023-11-29T16:54:12.433Z,2.77
2023-11-29T16:57:14.844Z,2.75
2023-11-29T17:00:17.825Z,2.72
2023-11-29T17:03:20.266Z,2.70
2023-11-29T17:06:22.794Z,2.72
2023-11-29T17:09:25.398Z,2.64
2023-11-29T17:12:27.849Z,2.55
2023-11-29T17:15:30.232Z,2.51
2023-11-29T17:18:32.685Z,2.50
2023-11-29T17:21:36.037Z,2.45
2023-11-29T17:24:38.486Z,2.47
2023-11-29T17:27:40.887Z,2.48
2023-11-29T17:30:46.234Z,2.50
2023-11-29T17:33:48.800Z,2.55
2023-11-29T17:36:51.219Z,2.55
2023-11-29T17:39:54.339Z,2.53
2023-11-29T17:42:56.735Z,2.55
2023-11-29T17:45:59.093Z,2.58
2023-11-29T17:49:01.493Z,2.52
2023-11-29T17:52:04.249Z,2.41
2023-11-29T17:55:06.881Z,2.23
2023-11-29T17:58:09.696Z,1.96
2023-11-29T18:01:12.052Z,1.75
2023-11-29T18:04:14.596Z,1.71
2023-11-29T18:07:17.082Z,1.77
2023-11-29T18:10:19.453Z,1.85
2023-11-29T18:13:23.855Z,1.84
2023-11-29T18:16:27.577Z,1.87
2023-11-29T18:19:29.986Z,1.93
2023-11-29T18:22:32.449Z,1.93
2023-11-29T18:25:36.301Z,1.86
2023-11-29T18:28:44.371Z,1.86
2023-11-29T18:31:49.877Z,1.89
2023-11-29T18:34:52.263Z,1.87
2023-11-29T18:37:54.657Z,1.94
2023-11-29T18:40:57.042Z,1.97
2023-11-29T18:43:59.783Z,1.91
2023-11-29T18:47:02.121Z,1.88
2023-11-29T18:50:04.781Z,1.85
2023-11-29T18:53:07.327Z,1.84
2023-11-29T18:56:09.945Z,1.84
2023-11-29T18:59:13.740Z,1.81
2023-11-29T19:02:16.532Z,1.77
2023-11-29T19:05:19.058Z,1.72
2023-11-29T19:08:21.462Z,1.73
2023-11-29T19:11:23.858Z,1.72
2023-11-29T19:14:27.032Z,1.75
2023-11-29T19:17:29.785Z,1.80
2023-11-29T19:20:32.227Z,1.83
2023-11-29T19:23:38.389Z,1.84
2023-11-29T19:26:45.598Z,1.77
2023-11-29T19:29:48.003Z,1.68
2023-11-29T19:32:50.738Z,1.58
2023-11-29T19:35:53.168Z,1.55
2023-11-29T19:38:55.612Z,1.47
2023-11-29T19:41:58.024Z,1.41
2023-11-29T19:45:00.589Z,1.38
2023-11-29T19:48:03.836Z,1.36
2023-11-29T19:51:07.834Z,1.33
2023-11-29T19:54:10.221Z,1.28
2023-11-29T19:57:13.138Z,1.21
2023-11-29T20:00:16.105Z,1.22
2023-11-29T20:03:18.602Z,1.19
2023-11-29T20:06:28.317Z,1.24
2023-11-29T20:09:34.376Z,1.32
2023-11-29T20:12:36.819Z,1.38
2023-11-29T20:15:39.253Z,1.43
2023-11-29T20:18:42.809Z,1.38
2023-11-29T20:21:45.362Z,1.28
2023-11-29T20:24:47.774Z,1.25
2023-11-29T20:27:50.123Z,1.21
2023-11-29T20:30:53.381Z,1.19
2023-11-29T20:33:58.688Z,1.12
2023-11-29T20:37:01.208Z,1.12
2023-11-29T20:40:03.709Z,1.11
2023-11-29T20:43:06.094Z,1.07
2023-11-29T20:46:09.199Z,1.07
2023-11-29T20:49:11.675Z,1.11
2023-11-29T20:52:14.064Z,1.09
2023-11-29T20:55:16.475Z,1.08
2023-11-29T20:58:21.616Z,1.09
2023-11-29T21:01:25.224Z,1.03
2023-11-29T21:04:27.688Z,1.09
2023-11-29T21:07:30.998Z,1.06
2023-11-29T21:10:33.400Z,1.06
2023-11-29T21:13:35.717Z,1.03
2023-11-29T21:16:38.097Z,1.02
2023-11-29T21:19:41.209Z,1.01
2023-11-29T21:22:43.597Z,0.95
2023-11-29T21:25:46.045Z,0.98
2023-11-29T21:28:48.509Z,0.99
2023-11-29T21:31:52.272Z,1.03
2023-11-29T21:34:54.681Z,1.02
2023-11-29T21:37:57.311Z,1.07
2023-11-29T21:40:59.667Z,1.01
2023-11-29T21:44:02.170Z,0.91
2023-11-29T21:47:04.841Z,0.90
2023-11-29T21:50:08.900Z,0.92
2023-11-29T21:53:11.315Z,0.94
2023-11-29T21:56:13.669Z,0.89
2023-11-29T21:59:16.029Z,0.85
2023-11-29T22:02:18.462Z,0.87
2023-11-29T22:05:21.004Z,0.82
2023-11-29T22:08:23.351Z,0.80
2023-11-29T22:11:26.018Z,0.76
2023-11-29T22:14:28.585Z,0.72
2023-11-29T22:17:31.034Z,0.60
2023-11-29T22:20:33.450Z,0.53
2023-11-29T22:23:35.865Z,0.55
2023-11-29T22:26:47.462Z,0.64
2023-11-29T22:29:54.740Z,0.58
2023-11-29T22:32:57.195Z,0.58
2023-11-29T22:35:59.744Z,0.52
2023-11-29T22:39:04.313Z,0.44
2023-11-29T22:42:06.755Z,0.43
2023-11-29T22:45:09.658Z,0.38
2023-11-29T22:48:12.219Z,0.37
2023-11-29T22:51:19.029Z,0.38
2023-11-29T22:54:21.537Z,0.40
2023-11-29T22:57:24.007Z,0.33
2023-11-29T23:00:26.432Z,0.30
2023-11-29T23:03:28.838Z,0.38
2023-11-29T23:06:32.352Z,0.44
2023-11-29T23:09:35.338Z,0.47
2023-11-29T23:12:37.734Z,0.55
2023-11-29T23:15:40.145Z,0.59
2023-11-29T23:18:43.283Z,0.62
2023-11-29T23:21:45.819Z,0.65
2023-11-29T23:24:48.195Z,0.62
2023-11-29T23:27:50.541Z,0.66
2023-11-29T23:30:52.959Z,0.57
2023-11-29T23:33:55.393Z,0.41
2023-11-29T23:36:57.753Z,0.21
2023-11-29T23:40:00.185Z,0.14
2023-11-29T23:43:02.582Z,0.15
2023-11-29T23:46:05.183Z,0.17
2023-11-29T23:49:07.657Z,0.20
2023-11-29T23:52:10.070Z,0.21
2023-11-29T23:55:12.420Z,0.30
2023-11-29T23:58:14.774Z,0.32
